ETD56T OMAA-EGLL
Flight info
| Callsign | ETD56T |
|---|---|
| Flight time | N/A |
| Altitude | 36000 |
| Route | DAXIB Q563 UKUVO G462 TUMAK L602 GADSI M860 KODAV/N0490F380 M860 NINVA UM860 CRM UL746 GOKPA UM10 TIVUG UL852 NEGEM DCT DEGET DCT BEGLA DCT DITIS DCT OKG/N0479F400 DCT VELIS DCT SWALM DCT TORNU DCT BREDA DCT ABNED L980 LOGAN |
| Aircraft | A388/J-SADE2E3FGHIJ3J4J5M1RWXY/LB1D1 |
Departure
| Time | 2026-05-04 09:17 |
|---|---|
| Airport | Zayed International Airport (OMAA) |
Arrival
| Time | N/A |
|---|---|
| Airport | London Heathrow Airport (EGLL) |
| Time | Latitude | Longitude | Altitude | Speed | Heading |
|---|---|---|---|---|---|
| 2026-05-04 08:33 | 24.45225 | 54.64450 | 83 ft | 0 kts | 196° |
| 2026-05-04 09:04 | 24.45244 | 54.64455 | 79 ft | 4 kts | 189° |
| 2026-05-04 09:04 | 24.45271 | 54.64457 | 83 ft | 4 kts | 177° |
| 2026-05-04 09:04 | 24.45298 | 54.64454 | 83 ft | 4 kts | 164° |
| 2026-05-04 09:04 | 24.45323 | 54.64444 | 84 ft | 4 kts | 151° |
| 2026-05-04 09:05 | 24.45345 | 54.64427 | 82 ft | 4 kts | 139° |
| 2026-05-04 09:05 | 24.45364 | 54.64406 | 82 ft | 4 kts | 129° |
| 2026-05-04 09:05 | 24.45381 | 54.64383 | 84 ft | 4 kts | 129° |
| 2026-05-04 09:05 | 24.45385 | 54.64378 | 83 ft | 0 kts | 131° |
| 2026-05-04 09:07 | 24.45374 | 54.64391 | 83 ft | 3 kts | 130° |
| 2026-05-04 09:08 | 24.45341 | 54.64433 | 84 ft | 12 kts | 131° |
| 2026-05-04 09:08 | 24.45298 | 54.64536 | 83 ft | 19 kts | 100° |
| 2026-05-04 09:08 | 24.45272 | 54.64697 | 82 ft | 23 kts | 102° |
| 2026-05-04 09:08 | 24.45231 | 54.64878 | 83 ft | 26 kts | 106° |
| 2026-05-04 09:09 | 24.45147 | 54.65053 | 85 ft | 23 kts | 128° |
| 2026-05-04 09:09 | 24.45076 | 54.65153 | 82 ft | 25 kts | 128° |
| 2026-05-04 09:09 | 24.44932 | 54.65353 | 86 ft | 21 kts | 128° |
| 2026-05-04 09:09 | 24.44841 | 54.65481 | 86 ft | 11 kts | 127° |
| 2026-05-04 09:10 | 24.44795 | 54.65538 | 88 ft | 10 kts | 156° |
| 2026-05-04 09:10 | 24.44701 | 54.65498 | 86 ft | 18 kts | 217° |
| 2026-05-04 09:10 | 24.44595 | 54.65406 | 87 ft | 20 kts | 219° |
| 2026-05-04 09:10 | 24.44490 | 54.65315 | 87 ft | 19 kts | 218° |
| 2026-05-04 09:11 | 24.44386 | 54.65228 | 87 ft | 19 kts | 216° |
| 2026-05-04 09:11 | 24.44267 | 54.65131 | 86 ft | 23 kts | 217° |
| 2026-05-04 09:11 | 24.44130 | 54.65015 | 86 ft | 26 kts | 218° |
| 2026-05-04 09:11 | 24.43986 | 54.64892 | 85 ft | 25 kts | 217° |
| 2026-05-04 09:12 | 24.43899 | 54.64820 | 83 ft | 13 kts | 207° |
| 2026-05-04 09:12 | 24.43826 | 54.64854 | 85 ft | 20 kts | 128° |
| 2026-05-04 09:14 | 24.42799 | 54.66300 | 86 ft | 36 kts | 129° |
| 2026-05-04 09:14 | 24.42651 | 54.66504 | 85 ft | 31 kts | 127° |
| 2026-05-04 09:14 | 24.42517 | 54.66698 | 86 ft | 33 kts | 127° |
| 2026-05-04 09:14 | 24.42437 | 54.66810 | 85 ft | 15 kts | 128° |
| 2026-05-04 09:15 | 24.42351 | 54.66850 | 85 ft | 14 kts | 199° |
| 2026-05-04 09:15 | 24.42252 | 54.66770 | 85 ft | 22 kts | 218° |
| 2026-05-04 09:15 | 24.42217 | 54.66649 | 84 ft | 17 kts | 304° |
| 2026-05-04 09:15 | 24.42420 | 54.66357 | 86 ft | 83 kts | 309° |
| 2026-05-04 09:17 | 24.47836 | 54.58761 | 2175 ft | 190 kts | 307° |
| 2026-05-04 09:18 | 24.48655 | 54.57567 | 2249 ft | 203 kts | 307° |
| 2026-05-04 09:18 | 24.49561 | 54.56270 | 2395 ft | 225 kts | 308° |
| 2026-05-04 09:18 | 24.50577 | 54.54844 | 2615 ft | 248 kts | 308° |
| 2026-05-04 09:18 | 24.51661 | 54.53318 | 3234 ft | 255 kts | 308° |
| 2026-05-04 09:19 | 24.52750 | 54.51791 | 4026 ft | 257 kts | 308° |
| 2026-05-04 09:19 | 24.53862 | 54.50218 | 4646 ft | 261 kts | 308° |
| 2026-05-04 09:19 | 24.54978 | 54.48641 | 5296 ft | 262 kts | 308° |
| 2026-05-04 09:19 | 24.56096 | 54.47063 | 5979 ft | 263 kts | 308° |
| 2026-05-04 09:20 | 24.57226 | 54.45467 | 6616 ft | 265 kts | 308° |
| 2026-05-04 09:20 | 24.58364 | 54.43859 | 7199 ft | 268 kts | 308° |
| 2026-05-04 09:20 | 24.59512 | 54.42235 | 7790 ft | 270 kts | 308° |
| 2026-05-04 09:20 | 24.60666 | 54.40602 | 8401 ft | 272 kts | 308° |
| 2026-05-04 09:21 | 24.61834 | 54.38951 | 8884 ft | 276 kts | 308° |
| 2026-05-04 09:21 | 24.63024 | 54.37289 | 9002 ft | 277 kts | 311° |
| 2026-05-04 09:21 | 24.64393 | 54.35809 | 9278 ft | 277 kts | 321° |
| 2026-05-04 09:21 | 24.65963 | 54.34582 | 9889 ft | 277 kts | 325° |
| 2026-05-04 09:22 | 24.67586 | 54.33358 | 10176 ft | 291 kts | 324° |
| 2026-05-04 09:22 | 24.69293 | 54.32039 | 10322 ft | 308 kts | 324° |
| 2026-05-04 09:22 | 24.71089 | 54.30644 | 10464 ft | 324 kts | 324° |
| 2026-05-04 09:22 | 24.72950 | 54.29203 | 10895 ft | 329 kts | 324° |
| 2026-05-04 09:23 | 24.74834 | 54.27748 | 11392 ft | 332 kts | 324° |
| 2026-05-04 09:23 | 24.76733 | 54.26282 | 11909 ft | 335 kts | 324° |
| 2026-05-04 09:23 | 24.78652 | 54.24801 | 12444 ft | 338 kts | 324° |
| 2026-05-04 09:23 | 24.80584 | 54.23311 | 12974 ft | 341 kts | 324° |
| 2026-05-04 09:25 | 24.94018 | 54.11679 | 16298 ft | 364 kts | 311° |
| 2026-05-04 09:25 | 24.95701 | 54.09583 | 16759 ft | 366 kts | 311° |
| 2026-05-04 09:26 | 24.97405 | 54.07481 | 17216 ft | 370 kts | 311° |
| 2026-05-04 09:26 | 24.99128 | 54.05357 | 17670 ft | 373 kts | 311° |
| 2026-05-04 09:26 | 25.00864 | 54.03217 | 18131 ft | 376 kts | 311° |
| 2026-05-04 09:26 | 25.02611 | 54.01059 | 18533 ft | 378 kts | 311° |
| 2026-05-04 09:27 | 25.04367 | 53.98887 | 18938 ft | 381 kts | 311° |
| 2026-05-04 09:27 | 25.06136 | 53.96699 | 19326 ft | 383 kts | 311° |
| 2026-05-04 09:27 | 25.07916 | 53.94495 | 19710 ft | 386 kts | 310° |
| 2026-05-04 09:27 | 25.09707 | 53.92276 | 20087 ft | 388 kts | 310° |
| 2026-05-04 09:28 | 25.11507 | 53.90045 | 20475 ft | 391 kts | 310° |
| 2026-05-04 09:28 | 25.13320 | 53.87796 | 20858 ft | 393 kts | 310° |
| 2026-05-04 09:28 | 25.15144 | 53.85532 | 21230 ft | 396 kts | 310° |
| 2026-05-04 09:28 | 25.16978 | 53.83256 | 21610 ft | 398 kts | 310° |
| 2026-05-04 09:29 | 25.18826 | 53.80962 | 21977 ft | 401 kts | 310° |
| 2026-05-04 09:29 | 25.20712 | 53.78682 | 22330 ft | 404 kts | 313° |
| 2026-05-04 09:29 | 25.22825 | 53.76620 | 22693 ft | 407 kts | 318° |
| 2026-05-04 09:29 | 25.25016 | 53.74620 | 23036 ft | 410 kts | 318° |
| 2026-05-04 09:30 | 25.27215 | 53.72590 | 23398 ft | 413 kts | 317° |
| 2026-05-04 09:30 | 25.29419 | 53.70548 | 23728 ft | 414 kts | 317° |
| 2026-05-04 09:30 | 25.31621 | 53.68507 | 24094 ft | 414 kts | 317° |
| 2026-05-04 09:30 | 25.33829 | 53.66460 | 24428 ft | 415 kts | 317° |
| 2026-05-04 09:31 | 25.36044 | 53.64406 | 24767 ft | 416 kts | 317° |
| 2026-05-04 09:31 | 25.38265 | 53.62345 | 25102 ft | 417 kts | 317° |
| 2026-05-04 09:31 | 25.40489 | 53.60281 | 25442 ft | 418 kts | 317° |
| 2026-05-04 09:31 | 25.42723 | 53.58207 | 25782 ft | 420 kts | 317° |
| 2026-05-04 09:32 | 25.44962 | 53.56128 | 26118 ft | 421 kts | 316° |
| 2026-05-04 09:32 | 25.47206 | 53.54045 | 26493 ft | 422 kts | 316° |
| 2026-05-04 09:34 | 25.63111 | 53.39223 | 29264 ft | 432 kts | 315° |
| 2026-05-04 09:34 | 25.65372 | 53.37016 | 29688 ft | 433 kts | 314° |
| 2026-05-04 09:34 | 25.66869 | 53.35542 | 29957 ft | 434 kts | 314° |
| 2026-05-04 09:34 | 25.69131 | 53.33313 | 30310 ft | 437 kts | 314° |
| 2026-05-04 09:35 | 25.71410 | 53.31075 | 30663 ft | 439 kts | 314° |
| 2026-05-04 09:35 | 25.73703 | 53.28829 | 31012 ft | 441 kts | 314° |
| 2026-05-04 09:35 | 25.76012 | 53.26570 | 31359 ft | 444 kts | 314° |
| 2026-05-04 09:35 | 25.78329 | 53.24303 | 31702 ft | 446 kts | 314° |
| 2026-05-04 09:37 | 25.89977 | 53.04334 | 34022 ft | 450 kts | 292° |
| 2026-05-04 09:37 | 25.91276 | 53.01156 | 34312 ft | 452 kts | 292° |
| 2026-05-04 09:38 | 25.92575 | 52.97969 | 34628 ft | 453 kts | 292° |
| 2026-05-04 09:38 | 25.93869 | 52.94785 | 35032 ft | 452 kts | 291° |
| 2026-05-04 09:38 | 25.95162 | 52.91600 | 35465 ft | 451 kts | 291° |
| 2026-05-04 09:38 | 25.96454 | 52.88413 | 35744 ft | 453 kts | 291° |
| 2026-05-04 09:39 | 25.99033 | 52.82038 | 35790 ft | 453 kts | 291° |
| 2026-05-04 09:39 | 26.01616 | 52.75647 | 35791 ft | 453 kts | 291° |
| 2026-05-04 09:40 | 26.04345 | 52.69324 | 35792 ft | 454 kts | 294° |
| 2026-05-04 09:40 | 26.07222 | 52.63071 | 35794 ft | 454 kts | 294° |
| 2026-05-04 09:42 | 26.18509 | 52.38055 | 35791 ft | 452 kts | 293° |
| 2026-05-04 09:43 | 26.21327 | 52.31786 | 35795 ft | 453 kts | 293° |
| 2026-05-04 09:43 | 26.24103 | 52.25492 | 35798 ft | 452 kts | 292° |
| 2026-05-04 09:44 | 26.26820 | 52.19173 | 35803 ft | 452 kts | 292° |
| 2026-05-04 09:46 | 26.37683 | 51.93884 | 35807 ft | 450 kts | 289° |
| 2026-05-04 09:46 | 26.39874 | 51.87356 | 35805 ft | 449 kts | 288° |
| 2026-05-04 09:47 | 26.42071 | 51.80826 | 35809 ft | 449 kts | 288° |
| 2026-05-04 09:49 | 26.50808 | 51.54698 | 35812 ft | 449 kts | 287° |
| 2026-05-04 09:51 | 26.58395 | 51.31821 | 35819 ft | 449 kts | 287° |
| 2026-05-04 09:51 | 26.60558 | 51.25283 | 35820 ft | 449 kts | 287° |
| 2026-05-04 09:52 | 26.62723 | 51.18749 | 35820 ft | 448 kts | 287° |
| 2026-05-04 09:52 | 26.64883 | 51.12214 | 35822 ft | 448 kts | 287° |
| 2026-05-04 09:53 | 26.67040 | 51.05677 | 35820 ft | 448 kts | 287° |
| 2026-05-04 09:53 | 26.69188 | 50.99141 | 35819 ft | 448 kts | 286° |
| 2026-05-04 09:54 | 26.71286 | 50.92586 | 35820 ft | 447 kts | 286° |
| 2026-05-04 09:54 | 26.73374 | 50.86031 | 35819 ft | 447 kts | 286° |
| 2026-05-04 09:55 | 26.75466 | 50.79475 | 35826 ft | 447 kts | 286° |
| 2026-05-04 09:55 | 26.77555 | 50.72921 | 35827 ft | 447 kts | 286° |
| 2026-05-04 09:56 | 26.79949 | 50.66487 | 35827 ft | 451 kts | 294° |
| 2026-05-04 09:56 | 26.83410 | 50.60561 | 35825 ft | 459 kts | 303° |
| 2026-05-04 09:57 | 26.87464 | 50.55039 | 35827 ft | 459 kts | 303° |
| 2026-05-04 09:57 | 26.91501 | 50.49489 | 35828 ft | 460 kts | 304° |
| 2026-05-04 09:58 | 26.95885 | 50.44223 | 35825 ft | 462 kts | 307° |
| 2026-05-04 09:58 | 27.00294 | 50.38979 | 35831 ft | 462 kts | 307° |
| 2026-05-04 10:00 | 27.18182 | 50.18236 | 35827 ft | 470 kts | 316° |
| 2026-05-04 10:04 | 27.54579 | 49.87192 | 35829 ft | 468 kts | 314° |
| 2026-05-04 10:04 | 27.59703 | 49.82672 | 35834 ft | 467 kts | 314° |
| 2026-05-04 10:05 | 27.64815 | 49.78157 | 35837 ft | 467 kts | 314° |
| 2026-05-04 10:05 | 27.69925 | 49.73639 | 35835 ft | 466 kts | 314° |
| 2026-05-04 10:06 | 27.75032 | 49.69118 | 35822 ft | 466 kts | 314° |
| 2026-05-04 10:06 | 27.80129 | 49.64596 | 35831 ft | 466 kts | 314° |
| 2026-05-04 10:08 | 27.97899 | 49.48706 | 35836 ft | 465 kts | 314° |
| 2026-05-04 10:08 | 28.02969 | 49.44162 | 35834 ft | 465 kts | 314° |
| 2026-05-04 10:09 | 28.08001 | 49.39590 | 35833 ft | 464 kts | 313° |
| 2026-05-04 10:09 | 28.13020 | 49.34997 | 35838 ft | 464 kts | 313° |
| 2026-05-04 10:10 | 28.18040 | 49.30406 | 35835 ft | 464 kts | 313° |
| 2026-05-04 10:10 | 28.23061 | 49.25812 | 35834 ft | 463 kts | 313° |
| 2026-05-04 10:11 | 28.28074 | 49.21222 | 35838 ft | 463 kts | 313° |
| 2026-05-04 10:11 | 28.33092 | 49.16621 | 35839 ft | 463 kts | 313° |
| 2026-05-04 10:12 | 28.38099 | 49.12025 | 35842 ft | 463 kts | 313° |
| 2026-05-04 10:12 | 28.43387 | 49.07743 | 35837 ft | 469 kts | 318° |